Cook Station, Missouri
Current Conditions -  °F | °C
As of 1:53 PM on Wednesday 26 Nov 2014 (Local Time) from KVIH Reporting Station
Overcast Overcast  
Wind Chill: 32°   Ceiling: 2000
Heat Index: 36°   Visibility: 10mi
Dew Point: 34°   Wind: 5mph
Humidity: 93%   Direction: 240°WSW
Pressure: 29.94"   Gusts: NA
Location:  37.81°N, 91.44°W
Report Text: KVIH 261953Z AUTO 24004KT 10SM FEW005 BKN020 OVC075 02/01 A2994 RMK AO2 SLP147 T00220011
Loading
Personal Weather Stations






























Interactive Weather Map New forecast layout! Learn more

10-Day Weather Forecast

Advertisements
Track Severe Weather on mobile